< < Back
Terminal Aerodrome Forecast


Current Version              Previous Versions:   1  2  3  4  5  6  7  8  9  

Terminal Aerodrome Forecast

800
FTUS42 KJAX 212300 RRA
TAFSSI
TAF
KSSI 212353Z 2200/2224 03010KT 3SM -RA OVC006
      TEMPO 2200/2202 2SM RA
     FM220300 04005KT 3SM SHRA BR OVC004
      TEMPO 2208/2212 1/2SM RA OVC002=

Latest METAR

302
SAUS70 KWBC 220500 RRC
MTRSSI
METAR KSSI 220453Z AUTO 36007KT 7SM BKN004 BKN010 OVC014 13/12 A3007 RMK
AO2 SLP182 T01280122 401390117


USA.gov is the U.S. government's official web portal to all federal, state and local government web resources and services.